Virginia Trader — 9HA3823 — position and weather

sailwx.info

Track history (hours):
 
Tides and Currents Weather Stations Pressure Air Temp Water Temp Dewpoint Dewpoint Depression Visibility Wind Speed Wind Dir Waves Ship Positions

Virginia Trader

Last reported at 2018-Feb-19 18:53 UTC. Time now 2018-Feb-21 05:22 UTC.
Position N 28°42' W 094°26'.

Length 211 m; draft 8.3 m.

Type: Ship (hazmat cat A). MMSI: 256116000.

Date/timePositionNaut miles runAvg speedWind from/ knotsBaromVisibWave heightAir tempDewpointWater temp
2018-Feb-19 18:53N 28°42' W 094°26'719.0
2018-Feb-19 18:30N 28°49' W 094°26'917.7
2018-Feb-19 18:00N 28°58' W 094°25'816.4
2018-Feb-19 17:30N 29°06' W 094°25'815.2
2018-Feb-19 16:58N 29°12' W 094°31'715.3
2018-Feb-19 16:30N 29°17' W 094°37'611.6
2018-Feb-19 15:59N 29°21' W 094°42'612.1
2018-Feb-19 15:29N 29°23' W 094°49'511.1
2018-Feb-19 15:00N 29°28' W 094°51'611.4
2018-Feb-19 14:30N 29°33' W 094°54'510.4
2018-Feb-19 14:00N 29°37' W 094°58'4 8.0
2018-Feb-19 13:30N 29°41' W 094°59'1 1.1
2018-Feb-19 13:00N 29°41' W 095°00'0 0.0
2018-Feb-19 12:30N 29°41' W 095°00'0 0.0
2018-Feb-19 11:57N 29°41' W 095°00'0 0.0
2018-Feb-19 11:27N 29°41' W 095°00'0 0.0
2018-Feb-19 11:00N 29°41' W 095°00'0 0.0
2018-Feb-19 10:24N 29°41' W 095°00'0 0.0
2018-Feb-19 09:57N 29°41' W 095°00'0 0.0
2018-Feb-19 09:30N 29°41' W 095°00'0 0.0
2018-Feb-19 09:00N 29°41' W 095°00'0 0.0
2018-Feb-19 08:24N 29°41' W 095°00'0 0.0
2018-Feb-19 08:00N 29°41' W 095°00'0 0.0
2018-Feb-19 07:30N 29°41' W 095°00'0 0.0
2018-Feb-19 07:00N 29°41' W 095°00'0 0.0
2018-Feb-19 06:30N 29°41' W 095°00'0 0.0
2018-Feb-19 06:00N 29°41' W 095°00'0 0.0
2018-Feb-19 05:30N 29°41' W 095°00'0 0.0
2018-Feb-19 04:51N 29°41' W 095°00'0 0.0
2018-Feb-19 04:30N 29°41' W 095°00'0 0.0
2018-Feb-19 03:57N 29°41' W 095°00'0 0.0
2018-Feb-19 03:30N 29°41' W 095°00'0 0.0
2018-Feb-19 03:00N 29°41' W 095°00'0 0.0
2018-Feb-19 02:30N 29°41' W 095°00'0 0.0
2018-Feb-19 01:57N 29°41' W 095°00'0 0.0
2018-Feb-19 01:30N 29°41' W 095°00'0 0.0
2018-Feb-19 01:00N 29°41' W 095°00'0 0.0
2018-Feb-19 00:30N 29°41' W 095°00'0 0.0
2018-Feb-19 00:00N 29°41' W 095°00'0 0.0
2018-Feb-18 23:30N 29°41' W 095°00'0 0.0
2018-Feb-18 23:00N 29°41' W 095°00'0 0.0
2018-Feb-18 22:27N 29°41' W 095°00'0 0.0
2018-Feb-18 22:00N 29°41' W 095°00'0 0.0
2018-Feb-18 21:30N 29°41' W 095°00'0 0.0
2018-Feb-18 21:00N 29°41' W 095°00'0 0.0
2018-Feb-18 20:30N 29°41' W 095°00'0 0.0
2018-Feb-18 20:00N 29°41' W 095°00'0 0.0
2018-Feb-18 19:30N 29°41' W 095°00'0 0.0
2018-Feb-18 19:00N 29°41' W 095°00'0 0.0
2018-Feb-18 18:30N 29°41' W 095°00'0 0.0
2018-Feb-18 18:00N 29°41' W 095°00'0 0.0
2018-Feb-18 17:30N 29°41' W 095°00'0 0.0
2018-Feb-18 17:00N 29°41' W 095°00'0 0.0
2018-Feb-18 16:30N 29°41' W 095°00'0 0.0
2018-Feb-18 16:00N 29°41' W 095°00'0 0.0
2018-Feb-18 15:30N 29°41' W 095°00'0 0.0
2018-Feb-18 15:00N 29°41' W 095°00'0 0.0
2018-Feb-18 14:30N 29°41' W 095°00'0 0.0
2018-Feb-18 14:00N 29°41' W 095°00'0 0.0
2018-Feb-18 13:30N 29°41' W 095°00'0 0.0
2018-Feb-18 13:00N 29°41' W 095°00'0 0.0
2018-Feb-18 12:30N 29°41' W 095°00'0 0.0
2018-Feb-18 11:57N 29°41' W 095°00'0 0.0
2018-Feb-18 07:27N 29°41' W 095°00'0 0.0
2018-Feb-18 06:24N 29°41' W 095°00'0 0.0
2018-Feb-18 06:00N 29°41' W 095°00'0 0.0
2018-Feb-18 05:30N 29°41' W 095°00'0 0.0
2018-Feb-18 05:00N 29°41' W 095°00'0 0.0
2018-Feb-18 04:30N 29°41' W 095°00'0 0.0
2018-Feb-18 04:00N 29°41' W 095°00'0 0.0
2018-Feb-18 03:30N 29°41' W 095°00'0 0.0
2018-Feb-18 02:57N 29°41' W 095°00'0 0.0
2018-Feb-18 02:30N 29°41' W 095°00'0 0.0
2018-Feb-18 01:57N 29°41' W 095°00'1 1.7
2018-Feb-18 01:30N 29°41' W 094°59'4 7.3
2018-Feb-18 00:59N 29°37' W 094°58'5 9.9
2018-Feb-18 00:30N 29°33' W 094°55'510.4
2018-Feb-18 00:00N 29°29' W 094°52'510.3
2018-Feb-17 23:30N 29°24' W 094°49'17 9.6
2018-Feb-17 21:46N 29°16' W 094°32'0 0.5
2018-Feb-17 20:56N 29°17' W 094°32'0 0.0
2018-Feb-17 12:26N 29°17' W 094°32'0 0.0
2018-Feb-17 10:14N 29°17' W 094°32'0 0.0
2018-Feb-17 09:47N 29°17' W 094°32'0 0.0
2018-Feb-17 08:11N 29°17' W 094°32'0 0.0
2018-Feb-17 07:59N 29°17' W 094°32'0 0.0
2018-Feb-17 07:28N 29°17' W 094°32'0 0.0
2018-Feb-17 06:47N 29°17' W 094°32'0 0.0
2018-Feb-17 06:26N 29°17' W 094°32'0 0.0
2018-Feb-17 05:58N 29°17' W 094°32'0 0.0
2018-Feb-17 05:26N 29°17' W 094°32'0 0.0
2018-Feb-17 04:56N 29°17' W 094°32'0 0.0
2018-Feb-17 04:26N 29°17' W 094°32'0 0.0
2018-Feb-17 03:59N 29°17' W 094°32'0 0.0
2018-Feb-17 03:20N 29°17' W 094°32'0 0.0
2018-Feb-17 02:59N 29°17' W 094°32'0 0.0
2018-Feb-17 01:53N 29°17' W 094°32'0 0.0
2018-Feb-17 01:26N 29°17' W 094°32'0 0.0
2018-Feb-17 00:56N 29°17' W 094°32'0 0.0
2018-Feb-17 00:20N 29°17' W 094°32'0 0.0
2018-Feb-16 23:56N 29°17' W 094°32'0 0.0
2018-Feb-16 23:28N 29°17' W 094°32'0 0.0
2018-Feb-16 22:44N 29°17' W 094°32'0 0.1
2018-Feb-16 22:23N 29°17' W 094°32'0 0.0
2018-Feb-16 21:59N 29°17' W 094°32'0 0.1
2018-Feb-16 21:29N 29°17' W 094°32'0 0.0
2018-Feb-16 07:50N 29°17' W 094°32'0 0.0
2018-Feb-16 07:19N 29°17' W 094°32'0 0.0
2018-Feb-16 06:59N 29°17' W 094°32'0 0.0
2018-Feb-16 05:47N 29°17' W 094°32'0 0.0
2018-Feb-16 04:47N 29°17' W 094°32'0 0.0
2018-Feb-16 04:11N 29°17' W 094°32'0 0.0
2018-Feb-16 03:38N 29°17' W 094°32'0 0.0
2018-Feb-16 03:23N 29°17' W 094°32'0 0.0
2018-Feb-16 02:59N 29°17' W 094°32'0 0.0
2018-Feb-16 02:23N 29°17' W 094°32'0 0.0
2018-Feb-16 01:49N 29°17' W 094°32'0 0.0
2018-Feb-16 01:28N 29°17' W 094°32'0 0.0
2018-Feb-16 00:56N 29°17' W 094°32'0 0.0
2018-Feb-16 00:20N 29°17' W 094°32'0 0.0
2018-Feb-15 23:53N 29°17' W 094°32'0 0.0
2018-Feb-15 08:17N 29°17' W 094°32'0 0.0
2018-Feb-15 07:58N 29°17' W 094°32'0 0.0
2018-Feb-15 07:08N 29°17' W 094°32'0 0.0
2018-Feb-15 05:34N 29°17' W 094°32'0 0.0
2018-Feb-15 05:22N 29°17' W 094°32'0 0.0
2018-Feb-15 04:05N 29°17' W 094°32'0 0.1
2018-Feb-15 03:59N 29°17' W 094°32'0 0.0
2018-Feb-15 03:26N 29°17' W 094°32'0 0.1
2018-Feb-15 02:53N 29°17' W 094°32'0 0.0
2018-Feb-15 02:29N 29°17' W 094°32'0 0.0
2018-Feb-14 23:53N 29°16' W 094°32'0 0.0
2018-Feb-14 23:20N 29°16' W 094°32'0 0.0
2018-Feb-14 22:59N 29°16' W 094°32'0 0.0
2018-Feb-14 19:14N 29°16' W 094°32'4113.1
2018-Feb-14 16:06N 28°52' W 093°55'217.4
2018-Feb-14 15:58N 28°51' W 093°52'917.3
2018-Feb-14 15:25N 28°45' W 093°44'  
Track history (hours):
 
Tides and Currents Weather Stations Pressure Air Temp Water Temp Dewpoint Dewpoint Depression Visibility Wind Speed Wind Dir Waves Ship Positions

Virginia Trader

Last reported at 2018-Feb-19 18:53 UTC. Time now 2018-Feb-21 05:22 UTC.
Position N 28°42' W 094°26'.

Length 211 m; draft 8.3 m.

Type: Ship (hazmat cat A). MMSI: 256116000.

Date/timePositionNaut miles runAvg speedWind from/ knotsBaromVisibWave heightAir tempDewpointWater temp
2018-Feb-19 18:53N 28°42' W 094°26'719.0
2018-Feb-19 18:30N 28°49' W 094°26'917.7
2018-Feb-19 18:00N 28°58' W 094°25'816.4
2018-Feb-19 17:30N 29°06' W 094°25'815.2
2018-Feb-19 16:58N 29°12' W 094°31'715.3
2018-Feb-19 16:30N 29°17' W 094°37'611.6
2018-Feb-19 15:59N 29°21' W 094°42'612.1
2018-Feb-19 15:29N 29°23' W 094°49'511.1
2018-Feb-19 15:00N 29°28' W 094°51'611.4
2018-Feb-19 14:30N 29°33' W 094°54'510.4
2018-Feb-19 14:00N 29°37' W 094°58'4 8.0
2018-Feb-19 13:30N 29°41' W 094°59'1 1.1
2018-Feb-19 13:00N 29°41' W 095°00'0 0.0
2018-Feb-19 12:30N 29°41' W 095°00'0 0.0
2018-Feb-19 11:57N 29°41' W 095°00'0 0.0
2018-Feb-19 11:27N 29°41' W 095°00'0 0.0
2018-Feb-19 11:00N 29°41' W 095°00'0 0.0
2018-Feb-19 10:24N 29°41' W 095°00'0 0.0
2018-Feb-19 09:57N 29°41' W 095°00'0 0.0
2018-Feb-19 09:30N 29°41' W 095°00'0 0.0
2018-Feb-19 09:00N 29°41' W 095°00'0 0.0
2018-Feb-19 08:24N 29°41' W 095°00'0 0.0
2018-Feb-19 08:00N 29°41' W 095°00'0 0.0
2018-Feb-19 07:30N 29°41' W 095°00'0 0.0
2018-Feb-19 07:00N 29°41' W 095°00'0 0.0
2018-Feb-19 06:30N 29°41' W 095°00'0 0.0
2018-Feb-19 06:00N 29°41' W 095°00'0 0.0
2018-Feb-19 05:30N 29°41' W 095°00'0 0.0
2018-Feb-19 04:51N 29°41' W 095°00'0 0.0
2018-Feb-19 04:30N 29°41' W 095°00'0 0.0
2018-Feb-19 03:57N 29°41' W 095°00'0 0.0
2018-Feb-19 03:30N 29°41' W 095°00'0 0.0
2018-Feb-19 03:00N 29°41' W 095°00'0 0.0
2018-Feb-19 02:30N 29°41' W 095°00'0 0.0
2018-Feb-19 01:57N 29°41' W 095°00'0 0.0
2018-Feb-19 01:30N 29°41' W 095°00'0 0.0
2018-Feb-19 01:00N 29°41' W 095°00'0 0.0
2018-Feb-19 00:30N 29°41' W 095°00'0 0.0
2018-Feb-19 00:00N 29°41' W 095°00'0 0.0
2018-Feb-18 23:30N 29°41' W 095°00'0 0.0
2018-Feb-18 23:00N 29°41' W 095°00'0 0.0
2018-Feb-18 22:27N 29°41' W 095°00'0 0.0
2018-Feb-18 22:00N 29°41' W 095°00'0 0.0
2018-Feb-18 21:30N 29°41' W 095°00'0 0.0
2018-Feb-18 21:00N 29°41' W 095°00'0 0.0
2018-Feb-18 20:30N 29°41' W 095°00'0 0.0
2018-Feb-18 20:00N 29°41' W 095°00'0 0.0
2018-Feb-18 19:30N 29°41' W 095°00'0 0.0
2018-Feb-18 19:00N 29°41' W 095°00'0 0.0
2018-Feb-18 18:30N 29°41' W 095°00'0 0.0
2018-Feb-18 18:00N 29°41' W 095°00'0 0.0
2018-Feb-18 17:30N 29°41' W 095°00'0 0.0
2018-Feb-18 17:00N 29°41' W 095°00'0 0.0
2018-Feb-18 16:30N 29°41' W 095°00'0 0.0
2018-Feb-18 16:00N 29°41' W 095°00'0 0.0
2018-Feb-18 15:30N 29°41' W 095°00'0 0.0
2018-Feb-18 15:00N 29°41' W 095°00'0 0.0
2018-Feb-18 14:30N 29°41' W 095°00'0 0.0
2018-Feb-18 14:00N 29°41' W 095°00'0 0.0
2018-Feb-18 13:30N 29°41' W 095°00'0 0.0
2018-Feb-18 13:00N 29°41' W 095°00'0 0.0
2018-Feb-18 12:30N 29°41' W 095°00'0 0.0
2018-Feb-18 11:57N 29°41' W 095°00'0 0.0
2018-Feb-18 07:27N 29°41' W 095°00'0 0.0
2018-Feb-18 06:24N 29°41' W 095°00'0 0.0
2018-Feb-18 06:00N 29°41' W 095°00'0 0.0
2018-Feb-18 05:30N 29°41' W 095°00'0 0.0
2018-Feb-18 05:00N 29°41' W 095°00'0 0.0
2018-Feb-18 04:30N 29°41' W 095°00'0 0.0
2018-Feb-18 04:00N 29°41' W 095°00'0 0.0
2018-Feb-18 03:30N 29°41' W 095°00'0 0.0
2018-Feb-18 02:57N 29°41' W 095°00'0 0.0
2018-Feb-18 02:30N 29°41' W 095°00'0 0.0
2018-Feb-18 01:57N 29°41' W 095°00'1 1.7
2018-Feb-18 01:30N 29°41' W 094°59'4 7.3
2018-Feb-18 00:59N 29°37' W 094°58'5 9.9
2018-Feb-18 00:30N 29°33' W 094°55'510.4
2018-Feb-18 00:00N 29°29' W 094°52'510.3
2018-Feb-17 23:30N 29°24' W 094°49'17 9.6
2018-Feb-17 21:46N 29°16' W 094°32'0 0.5
2018-Feb-17 20:56N 29°17' W 094°32'0 0.0
2018-Feb-17 12:26N 29°17' W 094°32'0 0.0
2018-Feb-17 10:14N 29°17' W 094°32'0 0.0
2018-Feb-17 09:47N 29°17' W 094°32'0 0.0
2018-Feb-17 08:11N 29°17' W 094°32'0 0.0
2018-Feb-17 07:59N 29°17' W 094°32'0 0.0
2018-Feb-17 07:28N 29°17' W 094°32'0 0.0
2018-Feb-17 06:47N 29°17' W 094°32'0 0.0
2018-Feb-17 06:26N 29°17' W 094°32'0 0.0
2018-Feb-17 05:58N 29°17' W 094°32'0 0.0
2018-Feb-17 05:26N 29°17' W 094°32'0 0.0
2018-Feb-17 04:56N 29°17' W 094°32'0 0.0
2018-Feb-17 04:26N 29°17' W 094°32'0 0.0
2018-Feb-17 03:59N 29°17' W 094°32'0 0.0
2018-Feb-17 03:20N 29°17' W 094°32'0 0.0
2018-Feb-17 02:59N 29°17' W 094°32'0 0.0
2018-Feb-17 01:53N 29°17' W 094°32'0 0.0
2018-Feb-17 01:26N 29°17' W 094°32'0 0.0
2018-Feb-17 00:56N 29°17' W 094°32'0 0.0
2018-Feb-17 00:20N 29°17' W 094°32'0 0.0
2018-Feb-16 23:56N 29°17' W 094°32'0 0.0
2018-Feb-16 23:28N 29°17' W 094°32'0 0.0
2018-Feb-16 22:44N 29°17' W 094°32'0 0.1
2018-Feb-16 22:23N 29°17' W 094°32'0 0.0
2018-Feb-16 21:59N 29°17' W 094°32'0 0.1
2018-Feb-16 21:29N 29°17' W 094°32'0 0.0
2018-Feb-16 07:50N 29°17' W 094°32'0 0.0
2018-Feb-16 07:19N 29°17' W 094°32'0 0.0
2018-Feb-16 06:59N 29°17' W 094°32'0 0.0
2018-Feb-16 05:47N 29°17' W 094°32'0 0.0
2018-Feb-16 04:47N 29°17' W 094°32'0 0.0
2018-Feb-16 04:11N 29°17' W 094°32'0 0.0
2018-Feb-16 03:38N 29°17' W 094°32'0 0.0
2018-Feb-16 03:23N 29°17' W 094°32'0 0.0
2018-Feb-16 02:59N 29°17' W 094°32'0 0.0
2018-Feb-16 02:23N 29°17' W 094°32'0 0.0
2018-Feb-16 01:49N 29°17' W 094°32'0 0.0
2018-Feb-16 01:28N 29°17' W 094°32'0 0.0
2018-Feb-16 00:56N 29°17' W 094°32'0 0.0
2018-Feb-16 00:20N 29°17' W 094°32'0 0.0
2018-Feb-15 23:53N 29°17' W 094°32'0 0.0
2018-Feb-15 08:17N 29°17' W 094°32'0 0.0
2018-Feb-15 07:58N 29°17' W 094°32'0 0.0
2018-Feb-15 07:08N 29°17' W 094°32'0 0.0
2018-Feb-15 05:34N 29°17' W 094°32'0 0.0
2018-Feb-15 05:22N 29°17' W 094°32'0 0.0
2018-Feb-15 04:05N 29°17' W 094°32'0 0.1
2018-Feb-15 03:59N 29°17' W 094°32'0 0.0
2018-Feb-15 03:26N 29°17' W 094°32'0 0.1
2018-Feb-15 02:53N 29°17' W 094°32'0 0.0
2018-Feb-15 02:29N 29°17' W 094°32'0 0.0
2018-Feb-14 23:53N 29°16' W 094°32'0 0.0
2018-Feb-14 23:20N 29°16' W 094°32'0 0.0
2018-Feb-14 22:59N 29°16' W 094°32'0 0.0
2018-Feb-14 19:14N 29°16' W 094°32'4113.1
2018-Feb-14 16:06N 28°52' W 093°55'217.4
2018-Feb-14 15:58N 28°51' W 093°52'917.3
2018-Feb-14 15:25N 28°45' W 093°44'  

Dump ship's entire track history